Aviation Digital Data Service (ADDS)

Output produced by METARs form (2119 UTC 20 August 2019)
found at http://www.aviationweather.gov/metar/data/
 
METAR text: VLVT 201630Z 30006KT 3000 RA BKN010 BKN040 25/25 Q1005 NOSIG
Conditions at: VLVT (VIENTIANE/WATTAY, LA) observed 1630 UTC 20 August 2019
Temperature: 25.0°C (77°F)
Dewpoint: 25.0°C (77°F) [RH = 100%]
Pressure (altimeter): 29.68 inches Hg (1005.0 mb)
Winds: from the WNW (300 degrees) at 7 MPH (6 knots; 3.1 m/s)
Visibility: 1.86 miles (2.99 km)
Ceiling: 1000 feet AGL
Clouds: broken clouds at 1000 feet AGL
broken clouds at 4000 feet AGL
Weather: RA  (moderate rain)

METAR text: VLVT 201600Z 27006KT 4000 BR SCT010 BKN040 25/25 Q1005 NOSIG
Conditions at: VLVT (VIENTIANE/WATTAY, LA) observed 1600 UTC 20 August 2019
Temperature: 25.0°C (77°F)
Dewpoint: 25.0°C (77°F) [RH = 100%]
Pressure (altimeter): 29.68 inches Hg (1005.0 mb)
Winds: from the W (270 degrees) at 7 MPH (6 knots; 3.1 m/s)
Visibility: 2.49 miles (4.01 km)
Ceiling: 4000 feet AGL
Clouds: scattered clouds at 1000 feet AGL
broken clouds at 4000 feet AGL
Weather: BR  (mist)

METAR text: VLVT 201530Z 20006KT 4000 DZ SCT010 BKN040 26/25 Q1005 NOSIG
Conditions at: VLVT (VIENTIANE/WATTAY, LA) observed 1530 UTC 20 August 2019
Temperature: 26.0°C (79°F)
Dewpoint: 25.0°C (77°F) [RH = 94%]
Pressure (altimeter): 29.68 inches Hg (1005.0 mb)
Winds: from the SSW (200 degrees) at 7 MPH (6 knots; 3.1 m/s)
Visibility: 2.49 miles (4.01 km)
Ceiling: 4000 feet AGL
Clouds: scattered clouds at 1000 feet AGL
broken clouds at 4000 feet AGL
Weather: DZ  (moderate drizzle)

METAR text: VLVT 201500Z 20002KT 4000 BR SCT010 BKN040 27/27 Q1005 NOSIG
Conditions at: VLVT (VIENTIANE/WATTAY, LA) observed 1500 UTC 20 August 2019
Temperature: 27.0°C (81°F)
Dewpoint: 27.0°C (81°F) [RH = 100%]
Pressure (altimeter): 29.68 inches Hg (1005.0 mb)
Winds: from the SSW (200 degrees) at 2 MPH (2 knots; 1.0 m/s)
Visibility: 2.49 miles (4.01 km)
Ceiling: 4000 feet AGL
Clouds: scattered clouds at 1000 feet AGL
broken clouds at 4000 feet AGL
Weather: BR  (mist)

METAR text: VLVT 201430Z 09002KT 4000 BR BKN040 28/27 Q1005 NOSIG
Conditions at: VLVT (VIENTIANE/WATTAY, LA) observed 1430 UTC 20 August 2019
Temperature: 28.0°C (82°F)
Dewpoint: 27.0°C (81°F) [RH = 94%]
Pressure (altimeter): 29.68 inches Hg (1005.0 mb)
Winds: from the E (90 degrees) at 2 MPH (2 knots; 1.0 m/s)
Visibility: 2.49 miles (4.01 km)
Ceiling: 4000 feet AGL
Clouds: broken clouds at 4000 feet AGL
Weather: BR  (mist)

METAR text: VLVT 201400Z 09002KT 4000 BR BKN040 28/27 Q1005 NOSIG
Conditions at: VLVT (VIENTIANE/WATTAY, LA) observed 1400 UTC 20 August 2019
Temperature: 28.0°C (82°F)
Dewpoint: 27.0°C (81°F) [RH = 94%]
Pressure (altimeter): 29.68 inches Hg (1005.0 mb)
Winds: from the E (90 degrees) at 2 MPH (2 knots; 1.0 m/s)
Visibility: 2.49 miles (4.01 km)
Ceiling: 4000 feet AGL
Clouds: broken clouds at 4000 feet AGL
Weather: BR  (mist)

METAR text: VLVT 201330Z 09004KT 4000 BR BKN040 28/27 Q1004 NOSIG
Conditions at: VLVT (VIENTIANE/WATTAY, LA) observed 1330 UTC 20 August 2019
Temperature: 28.0°C (82°F)
Dewpoint: 27.0°C (81°F) [RH = 94%]
Pressure (altimeter): 29.65 inches Hg (1004.0 mb)
Winds: from the E (90 degrees) at 5 MPH (4 knots; 2.1 m/s)
Visibility: 2.49 miles (4.01 km)
Ceiling: 4000 feet AGL
Clouds: broken clouds at 4000 feet AGL
Weather: BR  (mist)

METAR text: VLVT 201300Z 09002KT 5000 BR BKN040 28/26 Q1004 NOSIG
Conditions at: VLVT (VIENTIANE/WATTAY, LA) observed 1300 UTC 20 August 2019
Temperature: 28.0°C (82°F)
Dewpoint: 26.0°C (79°F) [RH = 89%]
Pressure (altimeter): 29.65 inches Hg (1004.0 mb)
Winds: from the E (90 degrees) at 2 MPH (2 knots; 1.0 m/s)
Visibility: 3 miles ( 5 km)
Ceiling: 4000 feet AGL
Clouds: broken clouds at 4000 feet AGL
Weather: BR  (mist)

METAR text: VLVT 201230Z 09002KT 5000 BR BKN040 BKN083 28/26 Q1004 NOSIG
Conditions at: VLVT (VIENTIANE/WATTAY, LA) observed 1230 UTC 20 August 2019
Temperature: 28.0°C (82°F)
Dewpoint: 26.0°C (79°F) [RH = 89%]
Pressure (altimeter): 29.65 inches Hg (1004.0 mb)
Winds: from the E (90 degrees) at 2 MPH (2 knots; 1.0 m/s)
Visibility: 3 miles ( 5 km)
Ceiling: 4000 feet AGL
Clouds: broken clouds at 4000 feet AGL
broken clouds at 8300 feet AGL
Weather: BR  (mist)

METAR text: VLVT 201200Z 12006KT 6000 BKN040 BKN083 28/27 Q1003 NOSIG
Conditions at: VLVT (VIENTIANE/WATTAY, LA) observed 1200 UTC 20 August 2019
Temperature: 28.0°C (82°F)
Dewpoint: 27.0°C (81°F) [RH = 94%]
Pressure (altimeter): 29.62 inches Hg (1003.0 mb)
Winds: from the ESE (120 degrees) at 7 MPH (6 knots; 3.1 m/s)
Visibility: 4 miles ( 6 km)
Ceiling: 4000 feet AGL
Clouds: broken clouds at 4000 feet AGL
broken clouds at 8300 feet AGL
Weather: no significant weather observed at this time

METAR text: VLVT 201130Z 12002KT 7000 BKN040 BKN083 28/27 Q1003 NOSIG
Conditions at: VLVT (VIENTIANE/WATTAY, LA) observed 1130 UTC 20 August 2019
Temperature: 28.0°C (82°F)
Dewpoint: 27.0°C (81°F) [RH = 94%]
Pressure (altimeter): 29.62 inches Hg (1003.0 mb)
Winds: from the ESE (120 degrees) at 2 MPH (2 knots; 1.0 m/s)
Visibility: 4 miles ( 7 km)
Ceiling: 4000 feet AGL
Clouds: broken clouds at 4000 feet AGL
broken clouds at 8300 feet AGL
Weather: no significant weather observed at this time

METAR text: VLVT 201100Z 12004KT 7000 BKN040 BKN083 28/27 Q1002 NOSIG
Conditions at: VLVT (VIENTIANE/WATTAY, LA) observed 1100 UTC 20 August 2019
Temperature: 28.0°C (82°F)
Dewpoint: 27.0°C (81°F) [RH = 94%]
Pressure (altimeter): 29.59 inches Hg (1002.0 mb)
Winds: from the ESE (120 degrees) at 5 MPH (4 knots; 2.1 m/s)
Visibility: 4 miles ( 7 km)
Ceiling: 4000 feet AGL
Clouds: broken clouds at 4000 feet AGL
broken clouds at 8300 feet AGL
Weather: no significant weather observed at this time

METAR text: VLVT 201030Z 16004KT 6000 TS SCT016 SCT040 BKN100 29/26 Q1003 NOSIG
Conditions at: VLVT (VIENTIANE/WATTAY, LA) observed 1030 UTC 20 August 2019
Temperature: 29.0°C (84°F)
Dewpoint: 26.0°C (79°F) [RH = 84%]
Pressure (altimeter): 29.62 inches Hg (1003.0 mb)
Winds: from the SSE (160 degrees) at 5 MPH (4 knots; 2.1 m/s)
Visibility: 4 miles ( 6 km)
Ceiling: 10000 feet AGL
Clouds: scattered clouds at 1600 feet AGL
scattered clouds at 4000 feet AGL
broken clouds at 10000 feet AGL
Weather: TS  (thunderstorm)

METAR text: VLVT 201000Z 16004KT 9999 SCT010 BKN040 BKN083 30/26 Q1003 NOSIG
Conditions at: VLVT (VIENTIANE/WATTAY, LA) observed 1000 UTC 20 August 2019
Temperature: 30.0°C (86°F)
Dewpoint: 26.0°C (79°F) [RH = 79%]
Pressure (altimeter): 29.62 inches Hg (1003.0 mb)
Winds: from the SSE (160 degrees) at 5 MPH (4 knots; 2.1 m/s)
Visibility: 6 or more miles (10+ km)
Ceiling: 4000 feet AGL
Clouds: scattered clouds at 1000 feet AGL
broken clouds at 4000 feet AGL
broken clouds at 8300 feet AGL
Weather: no significant weather observed at this time

METAR text: VLVT 200930Z 16004KT 9999 SCT016 SCT040 BKN100 30/26 Q1002 NOSIG
Conditions at: VLVT (VIENTIANE/WATTAY, LA) observed 0930 UTC 20 August 2019
Temperature: 30.0°C (86°F)
Dewpoint: 26.0°C (79°F) [RH = 79%]
Pressure (altimeter): 29.59 inches Hg (1002.0 mb)
Winds: from the SSE (160 degrees) at 5 MPH (4 knots; 2.1 m/s)
Visibility: 6 or more miles (10+ km)
Ceiling: 10000 feet AGL
Clouds: scattered clouds at 1600 feet AGL
scattered clouds at 4000 feet AGL
broken clouds at 10000 feet AGL
Weather: no significant weather observed at this time

METAR text: VLVT 200900Z 14004KT 9999 SCT016 SCT040 BKN100 30/26 Q1003 NOSIG
Conditions at: VLVT (VIENTIANE/WATTAY, LA) observed 0900 UTC 20 August 2019
Temperature: 30.0°C (86°F)
Dewpoint: 26.0°C (79°F) [RH = 79%]
Pressure (altimeter): 29.62 inches Hg (1003.0 mb)
Winds: from the SE (140 degrees) at 5 MPH (4 knots; 2.1 m/s)
Visibility: 6 or more miles (10+ km)
Ceiling: 10000 feet AGL
Clouds: scattered clouds at 1600 feet AGL
scattered clouds at 4000 feet AGL
broken clouds at 10000 feet AGL
Weather: no significant weather observed at this time

METAR text: VLVT 200830Z 18004KT 9999 SCT016 SCT040 BKN100 30/25 Q1002 NOSIG
Conditions at: VLVT (VIENTIANE/WATTAY, LA) observed 0830 UTC 20 August 2019
Temperature: 30.0°C (86°F)
Dewpoint: 25.0°C (77°F) [RH = 75%]
Pressure (altimeter): 29.59 inches Hg (1002.0 mb)
Winds: from the S (180 degrees) at 5 MPH (4 knots; 2.1 m/s)
Visibility: 6 or more miles (10+ km)
Ceiling: 10000 feet AGL
Clouds: scattered clouds at 1600 feet AGL
scattered clouds at 4000 feet AGL
broken clouds at 10000 feet AGL
Weather: no significant weather observed at this time

METAR text: VLVT 200800Z 14004KT 9999 SCT016 SCT040 BKN100 30/25 Q1003 NOSIG
Conditions at: VLVT (VIENTIANE/WATTAY, LA) observed 0800 UTC 20 August 2019
Temperature: 30.0°C (86°F)
Dewpoint: 25.0°C (77°F) [RH = 75%]
Pressure (altimeter): 29.62 inches Hg (1003.0 mb)
Winds: from the SE (140 degrees) at 5 MPH (4 knots; 2.1 m/s)
Visibility: 6 or more miles (10+ km)
Ceiling: 10000 feet AGL
Clouds: scattered clouds at 1600 feet AGL
scattered clouds at 4000 feet AGL
broken clouds at 10000 feet AGL
Weather: no significant weather observed at this time

METAR text: VLVT 200730Z 16004KT 9999 SCT016 BKN083 30/25 Q1003 NOSIG
Conditions at: VLVT (VIENTIANE/WATTAY, LA) observed 0730 UTC 20 August 2019
Temperature: 30.0°C (86°F)
Dewpoint: 25.0°C (77°F) [RH = 75%]
Pressure (altimeter): 29.62 inches Hg (1003.0 mb)
Winds: from the SSE (160 degrees) at 5 MPH (4 knots; 2.1 m/s)
Visibility: 6 or more miles (10+ km)
Ceiling: 8300 feet AGL
Clouds: scattered clouds at 1600 feet AGL
broken clouds at 8300 feet AGL
Weather: no significant weather observed at this time

METAR text: VLVT 200700Z 20004KT 9999 SCT016 BKN083 31/25 Q1004 NOSIG
Conditions at: VLVT (VIENTIANE/WATTAY, LA) observed 0700 UTC 20 August 2019
Temperature: 31.0°C (88°F)
Dewpoint: 25.0°C (77°F) [RH = 71%]
Pressure (altimeter): 29.65 inches Hg (1004.0 mb)
Winds: from the SSW (200 degrees) at 5 MPH (4 knots; 2.1 m/s)
Visibility: 6 or more miles (10+ km)
Ceiling: 8300 feet AGL
Clouds: scattered clouds at 1600 feet AGL
broken clouds at 8300 feet AGL
Weather: no significant weather observed at this time

METAR text: VLVT 200630Z 16006KT 9999 BKN016 BKN083 30/26 Q1004 NOSIG
Conditions at: VLVT (VIENTIANE/WATTAY, LA) observed 0630 UTC 20 August 2019
Temperature: 30.0°C (86°F)
Dewpoint: 26.0°C (79°F) [RH = 79%]
Pressure (altimeter): 29.65 inches Hg (1004.0 mb)
Winds: from the SSE (160 degrees) at 7 MPH (6 knots; 3.1 m/s)
Visibility: 6 or more miles (10+ km)
Ceiling: 1600 feet AGL
Clouds: broken clouds at 1600 feet AGL
broken clouds at 8300 feet AGL
Weather: no significant weather observed at this time

METAR text: VLVT 200600Z 18004KT 9999 BKN016 BKN083 30/26 Q1004 NOSIG
Conditions at: VLVT (VIENTIANE/WATTAY, LA) observed 0600 UTC 20 August 2019
Temperature: 30.0°C (86°F)
Dewpoint: 26.0°C (79°F) [RH = 79%]
Pressure (altimeter): 29.65 inches Hg (1004.0 mb)
Winds: from the S (180 degrees) at 5 MPH (4 knots; 2.1 m/s)
Visibility: 6 or more miles (10+ km)
Ceiling: 1600 feet AGL
Clouds: broken clouds at 1600 feet AGL
broken clouds at 8300 feet AGL
Weather: no significant weather observed at this time

METAR text: VLVT 200530Z 20002KT 9999 SCT016 BKN083 30/27 Q1005 NOSIG
Conditions at: VLVT (VIENTIANE/WATTAY, LA) observed 0530 UTC 20 August 2019
Temperature: 30.0°C (86°F)
Dewpoint: 27.0°C (81°F) [RH = 84%]
Pressure (altimeter): 29.68 inches Hg (1005.0 mb)
Winds: from the SSW (200 degrees) at 2 MPH (2 knots; 1.0 m/s)
Visibility: 6 or more miles (10+ km)
Ceiling: 8300 feet AGL
Clouds: scattered clouds at 1600 feet AGL
broken clouds at 8300 feet AGL
Weather: no significant weather observed at this time

METAR text: VLVT 200500Z 18004KT 9999 SCT016 BKN083 30/26 Q1005 NOSIG
Conditions at: VLVT (VIENTIANE/WATTAY, LA) observed 0500 UTC 20 August 2019
Temperature: 30.0°C (86°F)
Dewpoint: 26.0°C (79°F) [RH = 79%]
Pressure (altimeter): 29.68 inches Hg (1005.0 mb)
Winds: from the S (180 degrees) at 5 MPH (4 knots; 2.1 m/s)
Visibility: 6 or more miles (10+ km)
Ceiling: 8300 feet AGL
Clouds: scattered clouds at 1600 feet AGL
broken clouds at 8300 feet AGL
Weather: no significant weather observed at this time

METAR text: VLVT 200430Z 18004KT 9999 SCT010 SCT040 BKN083 29/27 Q1005 NOSIG
Conditions at: VLVT (VIENTIANE/WATTAY, LA) observed 0430 UTC 20 August 2019
Temperature: 29.0°C (84°F)
Dewpoint: 27.0°C (81°F) [RH = 89%]
Pressure (altimeter): 29.68 inches Hg (1005.0 mb)
Winds: from the S (180 degrees) at 5 MPH (4 knots; 2.1 m/s)
Visibility: 6 or more miles (10+ km)
Ceiling: 8300 feet AGL
Clouds: scattered clouds at 1000 feet AGL
scattered clouds at 4000 feet AGL
broken clouds at 8300 feet AGL
Weather: no significant weather observed at this time

METAR text: VLVT 200400Z 18004KT 9999 SCT010 SCT040 BKN083 28/27 Q1006 NOSIG
Conditions at: VLVT (VIENTIANE/WATTAY, LA) observed 0400 UTC 20 August 2019
Temperature: 28.0°C (82°F)
Dewpoint: 27.0°C (81°F) [RH = 94%]
Pressure (altimeter): 29.70 inches Hg (1006.0 mb)
Winds: from the S (180 degrees) at 5 MPH (4 knots; 2.1 m/s)
Visibility: 6 or more miles (10+ km)
Ceiling: 8300 feet AGL
Clouds: scattered clouds at 1000 feet AGL
scattered clouds at 4000 feet AGL
broken clouds at 8300 feet AGL
Weather: no significant weather observed at this time

METAR text: VLVT 200330Z 18004KT 9999 SCT016 BKN083 28/27 Q1006 NOSIG
Conditions at: VLVT (VIENTIANE/WATTAY, LA) observed 0330 UTC 20 August 2019
Temperature: 28.0°C (82°F)
Dewpoint: 27.0°C (81°F) [RH = 94%]
Pressure (altimeter): 29.70 inches Hg (1006.0 mb)
Winds: from the S (180 degrees) at 5 MPH (4 knots; 2.1 m/s)
Visibility: 6 or more miles (10+ km)
Ceiling: 8300 feet AGL
Clouds: scattered clouds at 1600 feet AGL
broken clouds at 8300 feet AGL
Weather: no significant weather observed at this time

METAR text: VLVT 200300Z 20002KT 9999 SCT016 BKN083 28/27 Q1006 NOSIG
Conditions at: VLVT (VIENTIANE/WATTAY, LA) observed 0300 UTC 20 August 2019
Temperature: 28.0°C (82°F)
Dewpoint: 27.0°C (81°F) [RH = 94%]
Pressure (altimeter): 29.70 inches Hg (1006.0 mb)
Winds: from the SSW (200 degrees) at 2 MPH (2 knots; 1.0 m/s)
Visibility: 6 or more miles (10+ km)
Ceiling: 8300 feet AGL
Clouds: scattered clouds at 1600 feet AGL
broken clouds at 8300 feet AGL
Weather: no significant weather observed at this time

METAR text: VLVT 200230Z 24002KT 9999 FEW016 BKN040 BKN083 28/27 Q1006 NOSIG
Conditions at: VLVT (VIENTIANE/WATTAY, LA) observed 0230 UTC 20 August 2019
Temperature: 28.0°C (82°F)
Dewpoint: 27.0°C (81°F) [RH = 94%]
Pressure (altimeter): 29.70 inches Hg (1006.0 mb)
Winds: from the WSW (240 degrees) at 2 MPH (2 knots; 1.0 m/s)
Visibility: 6 or more miles (10+ km)
Ceiling: 4000 feet AGL
Clouds: few clouds at 1600 feet AGL
broken clouds at 4000 feet AGL
broken clouds at 8300 feet AGL
Weather: no significant weather observed at this time

METAR text: VLVT 200200Z 00000KT 9999 FEW016 BKN040 BKN083 28/27 Q1006 NOSIG
Conditions at: VLVT (VIENTIANE/WATTAY, LA) observed 0200 UTC 20 August 2019
Temperature: 28.0°C (82°F)
Dewpoint: 27.0°C (81°F) [RH = 94%]
Pressure (altimeter): 29.70 inches Hg (1006.0 mb)
Winds: calm
Visibility: 6 or more miles (10+ km)
Ceiling: 4000 feet AGL
Clouds: few clouds at 1600 feet AGL
broken clouds at 4000 feet AGL
broken clouds at 8300 feet AGL
Weather: no significant weather observed at this time

METAR text: VLVT 200130Z 18002KT 9999 BKN040 BKN083 27/27 Q1006 NOSIG
Conditions at: VLVT (VIENTIANE/WATTAY, LA) observed 0130 UTC 20 August 2019
Temperature: 27.0°C (81°F)
Dewpoint: 27.0°C (81°F) [RH = 100%]
Pressure (altimeter): 29.70 inches Hg (1006.0 mb)
Winds: from the S (180 degrees) at 2 MPH (2 knots; 1.0 m/s)
Visibility: 6 or more miles (10+ km)
Ceiling: 4000 feet AGL
Clouds: broken clouds at 4000 feet AGL
broken clouds at 8300 feet AGL
Weather: no significant weather observed at this time

METAR text: VLVT 200100Z 00000KT 9999 BKN040 BKN083 27/27 Q1006 NOSIG
Conditions at: VLVT (VIENTIANE/WATTAY, LA) observed 0100 UTC 20 August 2019
Temperature: 27.0°C (81°F)
Dewpoint: 27.0°C (81°F) [RH = 100%]
Pressure (altimeter): 29.70 inches Hg (1006.0 mb)
Winds: calm
Visibility: 6 or more miles (10+ km)
Ceiling: 4000 feet AGL
Clouds: broken clouds at 4000 feet AGL
broken clouds at 8300 feet AGL
Weather: no significant weather observed at this time

METAR text: VLVT 200030Z 00000KT 8000 BKN040 BKN083 26/26 Q1005 NOSIG
Conditions at: VLVT (VIENTIANE/WATTAY, LA) observed 0030 UTC 20 August 2019
Temperature: 26.0°C (79°F)
Dewpoint: 26.0°C (79°F) [RH = 100%]
Pressure (altimeter): 29.68 inches Hg (1005.0 mb)
Winds: calm
Visibility: 5 miles ( 8 km)
Ceiling: 4000 feet AGL
Clouds: broken clouds at 4000 feet AGL
broken clouds at 8300 feet AGL
Weather: no significant weather observed at this time

METAR text: VLVT 200000Z 00000KT 8000 BKN040 BKN083 26/26 Q1005 NOSIG
Conditions at: VLVT (VIENTIANE/WATTAY, LA) observed 0000 UTC 20 August 2019
Temperature: 26.0°C (79°F)
Dewpoint: 26.0°C (79°F) [RH = 100%]
Pressure (altimeter): 29.68 inches Hg (1005.0 mb)
Winds: calm
Visibility: 5 miles ( 8 km)
Ceiling: 4000 feet AGL
Clouds: broken clouds at 4000 feet AGL
broken clouds at 8300 feet AGL
Weather: no significant weather observed at this time

METAR text: VLVT 192330Z 09002KT 7000 BKN040 BKN083 26/26 Q1004 NOSIG
Conditions at: VLVT (VIENTIANE/WATTAY, LA) observed 2330 UTC 19 August 2019
Temperature: 26.0°C (79°F)
Dewpoint: 26.0°C (79°F) [RH = 100%]
Pressure (altimeter): 29.65 inches Hg (1004.0 mb)
Winds: from the E (90 degrees) at 2 MPH (2 knots; 1.0 m/s)
Visibility: 4 miles ( 7 km)
Ceiling: 4000 feet AGL
Clouds: broken clouds at 4000 feet AGL
broken clouds at 8300 feet AGL
Weather: no significant weather observed at this time

METAR text: VLVT 192300Z 00000KT 7000 BKN040 BKN083 26/26 Q1004 NOSIG
Conditions at: VLVT (VIENTIANE/WATTAY, LA) observed 2300 UTC 19 August 2019
Temperature: 26.0°C (79°F)
Dewpoint: 26.0°C (79°F) [RH = 100%]
Pressure (altimeter): 29.65 inches Hg (1004.0 mb)
Winds: calm
Visibility: 4 miles ( 7 km)
Ceiling: 4000 feet AGL
Clouds: broken clouds at 4000 feet AGL
broken clouds at 8300 feet AGL
Weather: no significant weather observed at this time

METAR text: VLVT 191630Z 00000KT 3000 BR SCT040 27/27 Q1006 NOSIG
Conditions at: VLVT (VIENTIANE/WATTAY, LA) observed 1630 UTC 19 August 2019
Temperature: 27.0°C (81°F)
Dewpoint: 27.0°C (81°F) [RH = 100%]
Pressure (altimeter): 29.70 inches Hg (1006.0 mb)
Winds: calm
Visibility: 1.86 miles (2.99 km)
Ceiling: at least 12,000 feet AGL
Clouds: scattered clouds at 4000 feet AGL
Weather: BR  (mist)

METAR text: VLVT 191600Z 00000KT 3000 BR SCT040 27/27 Q1006 NOSIG
Conditions at: VLVT (VIENTIANE/WATTAY, LA) observed 1600 UTC 19 August 2019
Temperature: 27.0°C (81°F)
Dewpoint: 27.0°C (81°F) [RH = 100%]
Pressure (altimeter): 29.70 inches Hg (1006.0 mb)
Winds: calm
Visibility: 1.86 miles (2.99 km)
Ceiling: at least 12,000 feet AGL
Clouds: scattered clouds at 4000 feet AGL
Weather: BR  (mist)

METAR text: VLVT 191530Z 00000KT 3000 BR SCT040 27/27 Q1006 NOSIG
Conditions at: VLVT (VIENTIANE/WATTAY, LA) observed 1530 UTC 19 August 2019
Temperature: 27.0°C (81°F)
Dewpoint: 27.0°C (81°F) [RH = 100%]
Pressure (altimeter): 29.70 inches Hg (1006.0 mb)
Winds: calm
Visibility: 1.86 miles (2.99 km)
Ceiling: at least 12,000 feet AGL
Clouds: scattered clouds at 4000 feet AGL
Weather: BR  (mist)

METAR text: VLVT 191500Z 30002KT 3000 BR SCT040 28/27 Q1006 NOSIG
Conditions at: VLVT (VIENTIANE/WATTAY, LA) observed 1500 UTC 19 August 2019
Temperature: 28.0°C (82°F)
Dewpoint: 27.0°C (81°F) [RH = 94%]
Pressure (altimeter): 29.70 inches Hg (1006.0 mb)
Winds: from the WNW (300 degrees) at 2 MPH (2 knots; 1.0 m/s)
Visibility: 1.86 miles (2.99 km)
Ceiling: at least 12,000 feet AGL
Clouds: scattered clouds at 4000 feet AGL
Weather: BR  (mist)

METAR text: VLVT 191430Z 32004KT 3000 BR SCT040 28/27 Q1006 NOSIG
Conditions at: VLVT (VIENTIANE/WATTAY, LA) observed 1430 UTC 19 August 2019
Temperature: 28.0°C (82°F)
Dewpoint: 27.0°C (81°F) [RH = 94%]
Pressure (altimeter): 29.70 inches Hg (1006.0 mb)
Winds: from the NW (320 degrees) at 5 MPH (4 knots; 2.1 m/s)
Visibility: 1.86 miles (2.99 km)
Ceiling: at least 12,000 feet AGL
Clouds: scattered clouds at 4000 feet AGL
Weather: BR  (mist)

METAR text: VLVT 191400Z 20002KT 3000 BR SCT040 29/26 Q1005 NOSIG
Conditions at: VLVT (VIENTIANE/WATTAY, LA) observed 1400 UTC 19 August 2019
Temperature: 29.0°C (84°F)
Dewpoint: 26.0°C (79°F) [RH = 84%]
Pressure (altimeter): 29.68 inches Hg (1005.0 mb)
Winds: from the SSW (200 degrees) at 2 MPH (2 knots; 1.0 m/s)
Visibility: 1.86 miles (2.99 km)
Ceiling: at least 12,000 feet AGL
Clouds: scattered clouds at 4000 feet AGL
Weather: BR  (mist)

METAR text: VLVT 191330Z 24002KT 4000 BR NSC 29/26 Q1005 NOSIG
Conditions at: VLVT (VIENTIANE/WATTAY, LA) observed 1330 UTC 19 August 2019
Temperature: 29.0°C (84°F)
Dewpoint: 26.0°C (79°F) [RH = 84%]
Pressure (altimeter): 29.68 inches Hg (1005.0 mb)
Winds: from the WSW (240 degrees) at 2 MPH (2 knots; 1.0 m/s)
Visibility: 2.49 miles (4.01 km)
Ceiling: at least 12,000 feet AGL
Clouds: sky clear below 12,000 feet AGL
Weather: BR  (mist)

METAR text: VLVT 191300Z 20002KT 4000 BR NSC 30/26 Q1004 NOSIG
Conditions at: VLVT (VIENTIANE/WATTAY, LA) observed 1300 UTC 19 August 2019
Temperature: 30.0°C (86°F)
Dewpoint: 26.0°C (79°F) [RH = 79%]
Pressure (altimeter): 29.65 inches Hg (1004.0 mb)
Winds: from the SSW (200 degrees) at 2 MPH (2 knots; 1.0 m/s)
Visibility: 2.49 miles (4.01 km)
Ceiling: at least 12,000 feet AGL
Clouds: sky clear below 12,000 feet AGL
Weather: BR  (mist)

METAR text: VLVT 191230Z 22002KT 4000 BR SCT016 BKN040 29/25 Q1004 NOSIG
Conditions at: VLVT (VIENTIANE/WATTAY, LA) observed 1230 UTC 19 August 2019
Temperature: 29.0°C (84°F)
Dewpoint: 25.0°C (77°F) [RH = 79%]
Pressure (altimeter): 29.65 inches Hg (1004.0 mb)
Winds: from the SW (220 degrees) at 2 MPH (2 knots; 1.0 m/s)
Visibility: 2.49 miles (4.01 km)
Ceiling: 4000 feet AGL
Clouds: scattered clouds at 1600 feet AGL
broken clouds at 4000 feet AGL
Weather: BR  (mist)

METAR text: VLVT 191200Z 22002KT 5000 BR SCT016 BKN040 30/25 Q1004 NOSIG
Conditions at: VLVT (VIENTIANE/WATTAY, LA) observed 1200 UTC 19 August 2019
Temperature: 30.0°C (86°F)
Dewpoint: 25.0°C (77°F) [RH = 75%]
Pressure (altimeter): 29.65 inches Hg (1004.0 mb)
Winds: from the SW (220 degrees) at 2 MPH (2 knots; 1.0 m/s)
Visibility: 3 miles ( 5 km)
Ceiling: 4000 feet AGL
Clouds: scattered clouds at 1600 feet AGL
broken clouds at 4000 feet AGL
Weather: BR  (mist)

METAR text: VLVT 191130Z 24002KT 7000 SCT016 BKN100 31/24 Q1004 NOSIG
Conditions at: VLVT (VIENTIANE/WATTAY, LA) observed 1130 UTC 19 August 2019
Temperature: 31.0°C (88°F)
Dewpoint: 24.0°C (75°F) [RH = 66%]
Pressure (altimeter): 29.65 inches Hg (1004.0 mb)
Winds: from the WSW (240 degrees) at 2 MPH (2 knots; 1.0 m/s)
Visibility: 4 miles ( 7 km)
Ceiling: 10000 feet AGL
Clouds: scattered clouds at 1600 feet AGL
broken clouds at 10000 feet AGL
Weather: no significant weather observed at this time

METAR text: VLVT 191100Z 24002KT 9999 SCT016 BKN100 32/24 Q1003 NOSIG
Conditions at: VLVT (VIENTIANE/WATTAY, LA) observed 1100 UTC 19 August 2019
Temperature: 32.0°C (90°F)
Dewpoint: 24.0°C (75°F) [RH = 63%]
Pressure (altimeter): 29.62 inches Hg (1003.0 mb)
Winds: from the WSW (240 degrees) at 2 MPH (2 knots; 1.0 m/s)
Visibility: 6 or more miles (10+ km)
Ceiling: 10000 feet AGL
Clouds: scattered clouds at 1600 feet AGL
broken clouds at 10000 feet AGL
Weather: no significant weather observed at this time

METAR text: VLVT 191000Z 24004KT 9999 SCT016 SCT200 33/23 Q1003 NOSIG
Conditions at: VLVT (VIENTIANE/WATTAY, LA) observed 1000 UTC 19 August 2019
Temperature: 33.0°C (91°F)
Dewpoint: 23.0°C (73°F) [RH = 56%]
Pressure (altimeter): 29.62 inches Hg (1003.0 mb)
Winds: from the WSW (240 degrees) at 5 MPH (4 knots; 2.1 m/s)
Visibility: 6 or more miles (10+ km)
Ceiling: at least 12,000 feet AGL
Clouds: scattered clouds at 1600 feet AGL
scattered clouds at 20000 feet AGL
Weather: no significant weather observed at this time

METAR text: VLVT 190930Z 22004KT 9999 SCT016 SCT200 34/24 Q1003 NOSIG
Conditions at: VLVT (VIENTIANE/WATTAY, LA) observed 0930 UTC 19 August 2019
Temperature: 34.0°C (93°F)
Dewpoint: 24.0°C (75°F) [RH = 56%]
Pressure (altimeter): 29.62 inches Hg (1003.0 mb)
Winds: from the SW (220 degrees) at 5 MPH (4 knots; 2.1 m/s)
Visibility: 6 or more miles (10+ km)
Ceiling: at least 12,000 feet AGL
Clouds: scattered clouds at 1600 feet AGL
scattered clouds at 20000 feet AGL
Weather: no significant weather observed at this time

Forecast for: VLVT (VIENTIANE/WATTAY, LA)
Text: TAF VLVT 201700Z 2018/2118 20004KT 9999 SCT016 SCT040 BKN083
Forecast period: 1800 UTC 20 August 2019 to 1800 UTC 21 August 2019
Forecast type: FROM: standard forecast or significant change
Winds: from the SSW (200 degrees) at 5 MPH (4 knots; 2.1 m/s)
Visibility: 6 or more miles 10+ km)
Ceiling: 8300 feet AGL
Clouds: scattered clouds at 1600 feet AGL
scattered clouds at 4000 feet AGL
broken clouds at 8300 feet AGL
Weather: no significant weather forecast for this period